Time;durP1;ratioP1;P1;durP2;ratioP2;P2;SDS_P1;SDS_P2;PMS_P1;PMS_P2;Temp;Humidity;BMP_temperature;BMP_pressure;BME280_temperature;BME280_humidity;BME280_pressure;Samples;Min_cycle;Max_cycle;Signal;HPM_P1;HPM_P2
2021/09/15 00:01:00;;;;;;;;;;;24.30;62.00;;;;;;5128735;27;19928;-65
2021/09/15 00:03:35;;;;;;;;;;;24.30;62.10;;;;;;5117093;27;19963;-66
2021/09/15 00:06:05;;;;;;;;;;;24.30;62.00;;;;;;5130245;27;19953;-66
2021/09/15 00:08:33;;;;;;;;;;;24.30;62.00;;;;;;5112867;27;19923;-66
2021/09/15 00:11:01;;;;;;;;;;;24.30;62.00;;;;;;5116013;27;19934;-65
2021/09/15 00:13:30;;;;;;;;;;;24.30;62.10;;;;;;5127530;27;19982;-66
2021/09/15 00:15:59;;;;;;;;;;;24.30;62.00;;;;;;5131846;27;19924;-65
2021/09/15 00:18:27;;;;;;;;;;;24.30;62.00;;;;;;5130490;27;20313;-66
2021/09/15 00:20:56;;;;;;;;;;;24.30;62.00;;;;;;5132127;27;19923;-66
2021/09/15 00:23:26;;;;;;;;;;;24.30;62.10;;;;;;5123540;27;19924;-66
2021/09/15 00:25:56;;;;;;;;;;;24.30;62.00;;;;;;5122411;27;19928;-64
2021/09/15 00:28:27;;;;;;;;;;;24.30;62.30;;;;;;5126572;27;19959;-65
2021/09/15 00:30:57;;;;;;;;;;;24.30;62.10;;;;;;5119764;27;19924;-66
2021/09/15 00:33:26;;;;;;;;;;;24.30;62.10;;;;;;5125693;27;20026;-66
2021/09/15 00:35:55;;;;;;;;;;;24.30;62.20;;;;;;5137900;27;20046;-66
2021/09/15 00:38:25;;;;;;;;;;;24.30;62.10;;;;;;5128038;27;19932;-66
2021/09/15 00:40:56;;;;;;;;;;;24.30;62.20;;;;;;5123250;27;19977;-65
2021/09/15 00:43:23;;;;;;;;;;;24.30;62.10;;;;;;5127406;27;19997;-66
2021/09/15 00:45:56;;;;;;;;;;;24.30;62.20;;;;;;5124544;27;19924;-66
2021/09/15 00:48:25;;;;;;;;;;;24.20;62.10;;;;;;5128261;27;19935;-66
2021/09/15 00:50:56;;;;;;;;;;;24.30;62.20;;;;;;5119866;27;20360;-65
2021/09/15 00:53:25;;;;;;;;;;;24.20;62.10;;;;;;5125114;27;19927;-66
2021/09/15 00:55:53;;;;;;;;;;;24.20;62.20;;;;;;5120126;27;19932;-66
2021/09/15 00:58:23;;;;;;;;;;;24.30;62.20;;;;;;5134765;27;19923;-66
2021/09/15 01:00:54;;;;;;;;;;;24.20;62.20;;;;;;5132642;27;19950;-66
2021/09/15 01:03:24;;;;;;;;;;;24.30;62.30;;;;;;5131961;27;19927;-65
2021/09/15 01:05:53;;;;;;;;;;;24.20;62.30;;;;;;5109053;28;19958;-66
2021/09/15 01:08:23;;;;;;;;;;;24.20;62.30;;;;;;5126650;27;19924;-66
2021/09/15 01:10:54;;;;;;;;;;;24.20;62.30;;;;;;5108635;27;19933;-66
2021/09/15 01:13:25;;;;;;;;;;;24.20;62.30;;;;;;5117720;27;20385;-64
2021/09/15 01:15:55;;;;;;;;;;;24.20;62.20;;;;;;5128367;27;19927;-66
2021/09/15 01:18:26;;;;;;;;;;;24.20;62.30;;;;;;5118189;28;19996;-66
2021/09/15 01:21:00;;;;;;;;;;;24.20;62.30;;;;;;5114143;27;19976;-66
2021/09/15 01:23:31;;;;;;;;;;;24.20;63.00;;;;;;5132965;27;19936;-65
2021/09/15 01:26:13;;;;;;;;;;;24.20;62.30;;;;;;5134936;27;19961;-65
2021/09/15 01:28:40;;;;;;;;;;;24.20;62.30;;;;;;5116907;28;19923;-66
2021/09/15 01:31:11;;;;;;;;;;;24.20;62.40;;;;;;5127383;27;20330;-65
2021/09/15 01:33:40;;;;;;;;;;;24.20;62.30;;;;;;5124482;28;19927;-65
2021/09/15 01:36:08;;;;;;;;;;;24.10;62.30;;;;;;5123952;27;19928;-65
2021/09/15 01:38:41;;;;;;;;;;;24.20;62.30;;;;;;5122904;27;19931;-66
2021/09/15 01:41:11;;;;;;;;;;;24.20;62.30;;;;;;5128561;27;20499;-66
2021/09/15 01:43:51;;;;;;;;;;;24.10;62.30;;;;;;5105893;28;20422;-65
2021/09/15 01:46:23;;;;;;;;;;;24.20;62.30;;;;;;5114226;27;19935;-64
2021/09/15 01:48:53;;;;;;;;;;;24.20;62.30;;;;;;5128668;27;19924;-66
2021/09/15 01:51:22;;;;;;;;;;;24.10;62.30;;;;;;5129826;28;19923;-66
2021/09/15 01:53:50;;;;;;;;;;;24.20;62.30;;;;;;5096041;27;19930;-65
2021/09/15 01:56:20;;;;;;;;;;;24.20;62.30;;;;;;5112170;28;19969;-65
2021/09/15 01:58:50;;;;;;;;;;;24.20;62.30;;;;;;5128534;27;19923;-66
2021/09/15 02:01:20;;;;;;;;;;;24.20;62.40;;;;;;5124964;27;19935;-65
2021/09/15 02:03:51;;;;;;;;;;;24.20;62.40;;;;;;5132655;27;20261;-66
2021/09/15 02:06:22;;;;;;;;;;;24.20;62.40;;;;;;5132939;27;20344;-65
2021/09/15 02:08:53;;;;;;;;;;;24.20;62.30;;;;;;5131913;27;19923;-66
2021/09/15 02:11:24;;;;;;;;;;;24.20;62.30;;;;;;5120105;27;19927;-66
2021/09/15 02:13:55;;;;;;;;;;;24.20;62.30;;;;;;5108159;27;20073;-66
2021/09/15 02:16:24;;;;;;;;;;;24.20;62.30;;;;;;5109529;28;19928;-65
2021/09/15 02:18:53;;;;;;;;;;;24.10;62.30;;;;;;5120828;27;19931;-66
2021/09/15 02:21:28;;;;;;;;;;;24.10;62.40;;;;;;5115828;27;19989;-65
2021/09/15 02:23:58;;;;;;;;;;;24.20;62.30;;;;;;5104017;27;19932;-66
2021/09/15 02:26:31;;;;;;;;;;;24.10;62.20;;;;;;5108182;28;20876;-65
2021/09/15 02:29:03;;;;;;;;;;;24.10;62.30;;;;;;5112856;28;19924;-65
2021/09/15 02:31:32;;;;;;;;;;;24.10;62.30;;;;;;5107309;27;19931;-66
2021/09/15 02:33:59;;;;;;;;;;;24.10;62.10;;;;;;5097914;27;19951;-66
2021/09/15 02:36:33;;;;;;;;;;;24.10;62.80;;;;;;5111586;27;19931;-66
2021/09/15 02:39:01;;;;;;;;;;;24.20;62.30;;;;;;5103424;28;19932;-66
2021/09/15 02:41:29;;;;;;;;;;;24.10;62.30;;;;;;5099467;28;19923;-66
2021/09/15 02:43:57;;;;;;;;;;;24.10;62.10;;;;;;5112837;28;20433;-66
2021/09/15 02:46:28;;;;;;;;;;;24.10;62.10;;;;;;5115276;27;19935;-66
2021/09/15 02:49:16;;;;;;;;;;;24.10;62.10;;;;;;5113594;28;19963;-64
2021/09/15 02:51:45;;;;;;;;;;;24.10;62.20;;;;;;5109898;27;19936;-65
2021/09/15 02:54:14;;;;;;;;;;;24.20;62.30;;;;;;5106210;28;20247;-65
2021/09/15 02:56:45;;;;;;;;;;;24.10;62.20;;;;;;5113416;28;19934;-65
2021/09/15 02:59:16;;;;;;;;;;;24.10;62.20;;;;;;5112130;28;20187;-65
2021/09/15 03:01:48;;;;;;;;;;;24.10;62.20;;;;;;5108979;27;20423;-65
2021/09/15 03:04:16;;;;;;;;;;;24.10;62.20;;;;;;5111751;27;20383;-65
2021/09/15 03:06:46;;;;;;;;;;;24.10;62.20;;;;;;5112485;28;19923;-65
2021/09/15 03:09:26;;;;;;;;;;;24.10;62.20;;;;;;5126640;27;19966;-65
2021/09/15 03:11:56;;;;;;;;;;;24.10;62.20;;;;;;5113802;28;19932;-65
2021/09/15 03:14:26;;;;;;;;;;;24.10;62.20;;;;;;5123699;27;19935;-65
2021/09/15 03:16:58;;;;;;;;;;;24.10;62.30;;;;;;5135083;27;19923;-65
2021/09/15 03:19:25;;;;;;;;;;;24.10;62.30;;;;;;5135455;27;19930;-65
2021/09/15 03:21:54;;;;;;;;;;;24.10;62.30;;;;;;5133602;27;19932;-66
2021/09/15 03:24:23;;;;;;;;;;;24.10;62.30;;;;;;5134438;27;19927;-66
2021/09/15 03:26:53;;;;;;;;;;;24.10;62.30;;;;;;5098441;27;20451;-65
2021/09/15 03:29:25;;;;;;;;;;;24.10;62.30;;;;;;5134505;27;19927;-65
2021/09/15 03:31:55;;;;;;;;;;;24.10;62.40;;;;;;5133926;27;19959;-65
2021/09/15 03:34:25;;;;;;;;;;;24.10;62.50;;;;;;5137937;27;19931;-65
2021/09/15 03:36:53;;;;;;;;;;;24.10;62.40;;;;;;5134573;27;20264;-65
2021/09/15 03:39:21;;;;;;;;;;;24.10;62.50;;;;;;5152212;27;19923;-65
2021/09/15 03:41:52;;;;;;;;;;;24.10;62.50;;;;;;5134083;27;19932;-65
2021/09/15 03:44:27;;;;;;;;;;;24.10;62.40;;;;;;5120645;27;19939;-65
2021/09/15 03:47:04;;;;;;;;;;;24.10;62.30;;;;;;5128380;27;19923;-65
2021/09/15 03:49:39;;;;;;;;;;;24.00;62.40;;;;;;5117056;27;19931;-65
2021/09/15 03:52:09;;;;;;;;;;;24.10;62.40;;;;;;5129685;27;19924;-65
2021/09/15 03:54:39;;;;;;;;;;;24.10;62.50;;;;;;5132144;27;20255;-65
2021/09/15 03:57:07;;;;;;;;;;;24.10;62.40;;;;;;5126619;27;20239;-65
2021/09/15 03:59:44;;;;;;;;;;;24.10;62.40;;;;;;5127324;27;20256;-66
2021/09/15 04:02:14;;;;;;;;;;;24.00;62.30;;;;;;5127672;27;19930;-65
2021/09/15 04:04:44;;;;;;;;;;;24.00;62.40;;;;;;5130857;27;19923;-65
2021/09/15 04:07:13;;;;;;;;;;;24.10;62.50;;;;;;5133778;27;20130;-65
2021/09/15 04:09:44;;;;;;;;;;;24.10;62.50;;;;;;5129418;27;19927;-65
2021/09/15 04:12:15;;;;;;;;;;;24.10;62.40;;;;;;5120406;27;19924;-66
2021/09/15 04:14:53;;;;;;;;;;;24.10;62.40;;;;;;5106803;27;20252;-66
2021/09/15 04:17:23;;;;;;;;;;;24.10;62.50;;;;;;5099667;28;19924;-66
2021/09/15 04:19:53;;;;;;;;;;;24.00;62.50;;;;;;5108772;27;20359;-66
2021/09/15 04:22:23;;;;;;;;;;;24.00;62.40;;;;;;5093461;28;19928;-66
2021/09/15 04:33:17;;;;;;;;;;;24.00;62.30;;;;;;5105303;27;19970;-65
2021/09/15 04:35:46;;;;;;;;;;;24.00;62.30;;;;;;5097500;27;20288;-65
2021/09/15 04:38:13;;;;;;;;;;;24.00;62.30;;;;;;5102790;27;19924;-65
2021/09/15 04:40:42;;;;;;;;;;;24.10;62.50;;;;;;5111922;27;19923;-65
2021/09/15 04:43:12;;;;;;;;;;;24.00;62.30;;;;;;5106102;28;19943;-66
2021/09/15 04:45:43;;;;;;;;;;;24.00;62.30;;;;;;5110819;28;19924;-65
2021/09/15 04:48:10;;;;;;;;;;;24.10;62.30;;;;;;5109350;27;19923;-65
2021/09/15 04:50:36;;;;;;;;;;;24.00;62.30;;;;;;5094996;28;19932;-66
2021/09/15 04:53:06;;;;;;;;;;;24.00;62.40;;;;;;5108047;28;19981;-65
2021/09/15 04:55:34;;;;;;;;;;;24.00;62.40;;;;;;5110469;28;19932;-67
2021/09/15 04:58:05;;;;;;;;;;;24.00;62.40;;;;;;5105354;27;20010;-67
2021/09/15 05:01:03;;;;;;;;;;;24.00;62.50;;;;;;5109620;28;19932;-66
2021/09/15 05:03:32;;;;;;;;;;;24.00;62.50;;;;;;5103191;27;19924;-67
2021/09/15 05:06:02;;;;;;;;;;;24.00;62.40;;;;;;5128654;27;19924;-66
2021/09/15 05:08:29;;;;;;;;;;;24.00;62.40;;;;;;5102263;28;19987;-66
2021/09/15 05:10:57;;;;;;;;;;;24.00;62.50;;;;;;5125299;28;19908;-65
2021/09/15 05:13:25;;;;;;;;;;;24.00;62.50;;;;;;5111501;28;19938;-65
2021/09/15 05:16:03;;;;;;;;;;;24.00;62.50;;;;;;5132646;27;19924;-66
2021/09/15 05:18:36;;;;;;;;;;;24.00;62.50;;;;;;5130984;27;19923;-65
2021/09/15 05:21:06;;;;;;;;;;;24.00;62.60;;;;;;5133251;27;19928;-65
2021/09/15 05:23:35;;;;;;;;;;;24.00;62.60;;;;;;5104904;28;19927;-66
2021/09/15 05:26:03;;;;;;;;;;;24.00;62.60;;;;;;5133776;27;19962;-66
2021/09/15 05:28:31;;;;;;;;;;;24.00;62.70;;;;;;5125378;28;19928;-66
2021/09/15 05:30:58;;;;;;;;;;;24.00;62.70;;;;;;5138516;27;19987;-65
2021/09/15 05:33:27;;;;;;;;;;;24.00;62.70;;;;;;5107203;28;19923;-65
2021/09/15 05:35:58;;;;;;;;;;;24.00;62.70;;;;;;5140514;27;19948;-66
2021/09/15 05:38:26;;;;;;;;;;;24.00;62.80;;;;;;5138877;27;19928;-66
2021/09/15 05:40:56;;;;;;;;;;;24.00;62.80;;;;;;5138072;27;20018;-66
2021/09/15 05:43:26;;;;;;;;;;;24.00;62.80;;;;;;5138599;27;19944;-66
2021/09/15 05:45:58;;;;;;;;;;;24.00;62.80;;;;;;5128100;27;19935;-65
2021/09/15 05:48:30;;;;;;;;;;;24.00;62.80;;;;;;5139785;27;19930;-65
2021/09/15 05:51:04;;;;;;;;;;;24.00;62.80;;;;;;5139879;27;19924;-66
2021/09/15 05:53:32;;;;;;;;;;;24.00;62.80;;;;;;5130196;27;19923;-65
2021/09/15 05:56:03;;;;;;;;;;;24.00;62.80;;;;;;5135787;27;20293;-65
2021/09/15 05:58:34;;;;;;;;;;;24.00;62.80;;;;;;5127321;27;20457;-66
2021/09/15 06:01:03;;;;;;;;;;;24.00;63.50;;;;;;5127610;27;19924;-66
2021/09/15 06:03:36;;;;;;;;;;;24.00;62.90;;;;;;5133165;27;19992;-67
2021/09/15 06:06:03;;;;;;;;;;;24.00;62.90;;;;;;5120110;27;20308;-67
2021/09/15 06:08:32;;;;;;;;;;;24.00;62.90;;;;;;5130945;27;20253;-67
2021/09/15 06:11:03;;;;;;;;;;;24.00;62.90;;;;;;5129737;27;19923;-67
2021/09/15 06:13:30;;;;;;;;;;;24.00;63.00;;;;;;5135394;27;20394;-67
2021/09/15 06:16:04;;;;;;;;;;;24.00;63.00;;;;;;5131610;27;20573;-67
2021/09/15 06:18:35;;;;;;;;;;;24.00;63.00;;;;;;5114798;27;19939;-66
2021/09/15 06:21:05;;;;;;;;;;;24.00;63.10;;;;;;5129730;27;19983;-66
2021/09/15 06:23:37;;;;;;;;;;;24.00;63.40;;;;;;5127884;27;19988;-66
2021/09/15 06:26:11;;;;;;;;;;;24.00;63.40;;;;;;5130641;27;19931;-66
2021/09/15 06:28:41;;;;;;;;;;;24.00;63.40;;;;;;5133906;27;20312;-65
2021/09/15 06:31:10;;;;;;;;;;;24.00;63.40;;;;;;5134254;27;20271;-65
2021/09/15 06:33:39;;;;;;;;;;;24.00;63.40;;;;;;5133869;27;19938;-66
2021/09/15 06:36:08;;;;;;;;;;;24.00;63.50;;;;;;5128093;27;19923;-66
2021/09/15 06:38:40;;;;;;;;;;;24.00;63.40;;;;;;5127455;27;19923;-67
2021/09/15 06:41:11;;;;;;;;;;;24.00;63.70;;;;;;5116045;27;20299;-68
2021/09/15 06:43:51;;;;;;;;;;;24.00;63.50;;;;;;5125539;27;19937;-67
2021/09/15 06:46:22;;;;;;;;;;;24.00;63.60;;;;;;5129117;27;19924;-66
2021/09/15 06:48:52;;;;;;;;;;;24.00;63.90;;;;;;5112656;27;19934;-67
2021/09/15 06:51:26;;;;;;;;;;;24.00;64.10;;;;;;5132472;27;19927;-67
2021/09/15 06:53:56;;;;;;;;;;;24.10;64.10;;;;;;5132257;27;19923;-67
2021/09/15 06:56:26;;;;;;;;;;;24.10;64.10;;;;;;5130265;27;20063;-67
2021/09/15 06:58:57;;;;;;;;;;;24.10;64.20;;;;;;5139522;27;20520;-68
2021/09/15 07:01:27;;;;;;;;;;;24.20;64.00;;;;;;5128771;27;20243;-68
2021/09/15 07:03:59;;;;;;;;;;;24.20;64.00;;;;;;5131090;27;20018;-68
2021/09/15 07:06:27;;;;;;;;;;;24.30;63.80;;;;;;5127499;27;19924;-67
2021/09/15 07:08:55;;;;;;;;;;;24.30;63.80;;;;;;5126076;27;20260;-67
2021/09/15 07:11:26;;;;;;;;;;;24.30;63.80;;;;;;5130490;27;19926;-65
2021/09/15 07:14:03;;;;;;;;;;;24.40;63.70;;;;;;5128730;27;20037;-66
2021/09/15 07:16:33;;;;;;;;;;;24.40;63.80;;;;;;5129528;27;20496;-66
2021/09/15 07:19:04;;;;;;;;;;;24.50;63.40;;;;;;5132315;27;19958;-66
2021/09/15 07:21:32;;;;;;;;;;;24.50;63.30;;;;;;5114740;27;19954;-66
2021/09/15 07:24:00;;;;;;;;;;;24.50;63.30;;;;;;5127931;27;20345;-66
2021/09/15 07:26:31;;;;;;;;;;;24.60;63.30;;;;;;5128227;27;19927;-68
2021/09/15 07:29:02;;;;;;;;;;;24.60;63.10;;;;;;5109804;27;19949;-67
2021/09/15 07:31:37;;;;;;;;;;;24.60;63.00;;;;;;5129056;27;19933;-67
2021/09/15 07:34:05;;;;;;;;;;;24.70;63.20;;;;;;5131443;27;20347;-67
2021/09/15 07:36:36;;;;;;;;;;;24.70;63.00;;;;;;5111751;27;19923;-68
2021/09/15 07:39:06;;;;;;;;;;;24.70;62.90;;;;;;5094623;27;19947;-69
2021/09/15 07:41:36;;;;;;;;;;;24.80;62.90;;;;;;5115278;27;19945;-67
2021/09/15 07:44:04;;;;;;;;;;;24.80;62.80;;;;;;5104953;27;19945;-68
2021/09/15 07:46:35;;;;;;;;;;;24.80;62.60;;;;;;5114398;27;19924;-64
2021/09/15 07:49:07;;;;;;;;;;;24.90;62.60;;;;;;5125785;27;19980;-65
2021/09/15 07:51:37;;;;;;;;;;;24.90;62.80;;;;;;5113829;27;19923;-65
2021/09/15 07:54:05;;;;;;;;;;;24.90;63.30;;;;;;5124273;27;20297;-65
2021/09/15 07:56:34;;;;;;;;;;;24.90;63.70;;;;;;5130988;27;19924;-67
2021/09/15 07:59:02;;;;;;;;;;;24.80;63.80;;;;;;5123773;27;20272;-68
2021/09/15 08:01:44;;;;;;;;;;;24.80;63.70;;;;;;5115011;27;20035;-67
2021/09/15 08:04:15;;;;;;;;;;;24.90;63.40;;;;;;5127317;27;19923;-68
2021/09/15 08:06:45;;;;;;;;;;;24.90;63.40;;;;;;5130129;27;19928;-68
2021/09/15 08:09:19;;;;;;;;;;;24.90;63.30;;;;;;5128507;27;20366;-67
2021/09/15 08:11:47;;;;;;;;;;;24.90;63.20;;;;;;5112933;27;19934;-67
2021/09/15 08:14:17;;;;;;;;;;;25.00;62.90;;;;;;5126763;27;19923;-68
2021/09/15 08:16:45;;;;;;;;;;;25.00;62.90;;;;;;5095592;27;19927;-67
2021/09/15 08:19:13;;;;;;;;;;;25.00;63.00;;;;;;5129461;27;20382;-67
2021/09/15 08:21:46;;;;;;;;;;;25.10;63.10;;;;;;5131007;27;19927;-69
2021/09/15 08:24:20;;;;;;;;;;;25.10;63.40;;;;;;5127177;27;19923;-69
2021/09/15 08:26:50;;;;;;;;;;;25.10;63.30;;;;;;5126278;27;19933;-69
2021/09/15 08:29:22;;;;;;;;;;;25.10;63.50;;;;;;5110977;27;19939;-67
2021/09/15 08:31:51;;;;;;;;;;;25.20;63.60;;;;;;5128576;27;19927;-68
2021/09/15 08:34:28;;;;;;;;;;;25.20;63.80;;;;;;5130381;27;19933;-70
2021/09/15 08:36:58;;;;;;;;;;;25.20;63.70;;;;;;5130641;27;19931;-70
2021/09/15 08:39:27;;;;;;;;;;;25.20;63.70;;;;;;5126214;27;19927;-71
2021/09/15 08:41:58;;;;;;;;;;;25.30;63.70;;;;;;5128371;27;19930;-70
2021/09/15 08:44:28;;;;;;;;;;;25.30;63.80;;;;;;5124580;27;19927;-69
2021/09/15 08:46:58;;;;;;;;;;;25.30;64.20;;;;;;5130695;27;20405;-69
2021/09/15 08:49:30;;;;;;;;;;;25.30;64.50;;;;;;5121387;27;20004;-68
2021/09/15 08:52:03;;;;;;;;;;;25.30;64.60;;;;;;5128844;27;19924;-69
2021/09/15 08:54:32;;;;;;;;;;;25.30;63.90;;;;;;5124267;27;19924;-68
2021/09/15 08:57:00;;;;;;;;;;;25.30;64.10;;;;;;5125171;27;20470;-68
2021/09/15 08:59:31;;;;;;;;;;;25.40;63.70;;;;;;5125395;27;19935;-69
2021/09/15 09:02:06;;;;;;;;;;;25.40;64.20;;;;;;5130667;27;19924;-69
2021/09/15 09:04:58;;;;;;;;;;;25.40;63.80;;;;;;5125825;27;19936;-68
2021/09/15 09:07:33;;;;;;;;;;;25.40;63.90;;;;;;5112033;28;19923;-64
2021/09/15 09:10:07;;;;;;;;;;;25.50;62.90;;;;;;5125910;27;19923;-68
2021/09/15 09:12:39;;;;;;;;;;;25.50;62.70;;;;;;5129248;27;19988;-66
2021/09/15 09:15:16;;;;;;;;;;;25.40;63.50;;;;;;5112518;28;21396;-66
2021/09/15 09:17:44;;;;;;;;;;;25.50;63.30;;;;;;5128176;28;19923;-66
2021/09/15 09:20:20;;;;;;;;;;;25.50;63.10;;;;;;5108196;27;19939;-67
2021/09/15 09:22:57;;;;;;;;;;;25.60;63.00;;;;;;5127773;28;19927;-66
2021/09/15 09:25:24;;;;;;;;;;;25.60;62.90;;;;;;5111947;27;19938;-68
2021/09/15 09:27:54;;;;;;;;;;;25.60;62.60;;;;;;5109720;28;19927;-68
2021/09/15 09:30:35;;;;;;;;;;;25.60;62.60;;;;;;5110868;28;19924;-66
2021/09/15 09:33:12;;;;;;;;;;;25.70;62.30;;;;;;5124663;28;20018;-67
2021/09/15 09:35:52;;;;;;;;;;;25.70;63.30;;;;;;5126814;27;19927;-68
2021/09/15 09:38:22;;;;;;;;;;;25.70;63.10;;;;;;5129206;28;20194;-67
2021/09/15 09:41:01;;;;;;;;;;;25.70;62.80;;;;;;5127960;27;19928;-68
2021/09/15 09:43:31;;;;;;;;;;;25.70;62.50;;;;;;5127553;28;19938;-68
2021/09/15 09:46:01;;;;;;;;;;;25.70;62.80;;;;;;5110740;28;19927;-68
2021/09/15 09:48:38;;;;;;;;;;;25.70;62.50;;;;;;5111113;28;20325;-68
2021/09/15 09:51:25;;;;;;;;;;;25.70;62.20;;;;;;5127982;27;20348;-67
2021/09/15 09:54:14;;;;;;;;;;;25.70;62.20;;;;;;5128963;28;20396;-68
2021/09/15 09:56:45;;;;;;;;;;;25.80;62.20;;;;;;5128195;27;19927;-68
2021/09/15 09:59:15;;;;;;;;;;;25.80;62.10;;;;;;5106831;28;19923;-67
2021/09/15 10:01:47;;;;;;;;;;;25.80;62.00;;;;;;5106380;28;19923;-67
2021/09/15 10:04:21;;;;;;;;;;;25.80;62.40;;;;;;5122819;27;19954;-65
2021/09/15 10:06:52;;;;;;;;;;;25.80;62.10;;;;;;5129708;27;19939;-66
2021/09/15 10:09:24;;;;;;;;;;;25.70;62.80;;;;;;5127181;27;19932;-65
2021/09/15 10:11:55;;;;;;;;;;;25.70;63.30;;;;;;5120905;28;20369;-65
2021/09/15 10:14:25;;;;;;;;;;;25.60;63.40;;;;;;5126796;28;19924;-65
2021/09/15 10:16:57;;;;;;;;;;;25.60;63.60;;;;;;5102059;28;19923;-65
2021/09/15 10:19:38;;;;;;;;;;;25.50;63.80;;;;;;5125276;28;20039;-65
2021/09/15 10:22:09;;;;;;;;;;;25.50;64.00;;;;;;5124377;27;19923;-65
2021/09/15 10:24:55;;;;;;;;;;;25.40;64.20;;;;;;5130710;27;20018;-65
2021/09/15 10:27:26;;;;;;;;;;;25.40;64.20;;;;;;5132106;27;20005;-65
2021/09/15 10:30:21;;;;;;;;;;;25.30;64.30;;;;;;5116560;27;19931;-66
2021/09/15 10:32:50;;;;;;;;;;;25.30;64.40;;;;;;5117415;27;20036;-68
2021/09/15 10:35:39;;;;;;;;;;;25.30;64.20;;;;;;5120483;27;19929;-69
2021/09/15 10:38:11;;;;;;;;;;;25.40;64.20;;;;;;5127515;27;19931;-68
2021/09/15 10:40:43;;;;;;;;;;;25.40;64.20;;;;;;5134641;27;19923;-69
2021/09/15 10:43:30;;;;;;;;;;;25.50;64.30;;;;;;5111724;27;19924;-69
2021/09/15 10:46:21;;;;;;;;;;;25.50;64.10;;;;;;5128755;27;19927;-69
2021/09/15 10:49:12;;;;;;;;;;;25.60;66.10;;;;;;5111143;27;19923;-68
2021/09/15 10:51:41;;;;;;;;;;;25.60;66.10;;;;;;5118952;27;19931;-68
2021/09/15 10:54:28;;;;;;;;;;;25.60;66.00;;;;;;5129853;27;20508;-70
2021/09/15 10:57:17;;;;;;;;;;;25.60;64.70;;;;;;5119362;27;19924;-70
2021/09/15 11:00:10;;;;;;;;;;;25.70;64.50;;;;;;5131892;27;19927;-69
2021/09/15 11:02:45;;;;;;;;;;;25.70;64.60;;;;;;5123361;27;19924;-71
2021/09/15 11:05:34;;;;;;;;;;;25.70;64.70;;;;;;5129329;27;19923;-68
2021/09/15 11:08:05;;;;;;;;;;;25.70;64.10;;;;;;5125990;27;20021;-69
2021/09/15 11:10:37;;;;;;;;;;;25.70;64.50;;;;;;5134105;27;19934;-70
2021/09/15 11:13:37;;;;;;;;;;;25.70;64.40;;;;;;5129336;27;19955;-69
2021/09/15 11:16:24;;;;;;;;;;;25.70;63.50;;;;;;5121588;27;19970;-69
2021/09/15 11:19:14;;;;;;;;;;;25.80;63.60;;;;;;5131024;27;19927;-69
2021/09/15 11:21:46;;;;;;;;;;;25.80;63.90;;;;;;5114597;27;19923;-71
2021/09/15 11:24:21;;;;;;;;;;;25.80;63.30;;;;;;5129108;27;19959;-69
2021/09/15 11:27:04;;;;;;;;;;;25.90;63.40;;;;;;5132287;27;20228;-70
2021/09/15 11:29:54;;;;;;;;;;;25.90;63.60;;;;;;5130945;27;19927;-70
2021/09/15 11:32:23;;;;;;;;;;;25.90;63.90;;;;;;5126981;27;19956;-70
2021/09/15 11:34:55;;;;;;;;;;;25.90;63.60;;;;;;5129298;27;19939;-67
2021/09/15 11:37:29;;;;;;;;;;;25.90;63.10;;;;;;5106546;27;19923;-67
2021/09/15 11:40:04;;;;;;;;;;;25.90;62.70;;;;;;5101366;27;19927;-67
2021/09/15 11:42:37;;;;;;;;;;;25.70;62.60;;;;;;5121127;27;19934;-67
2021/09/15 11:45:12;;;;;;;;;;;25.70;63.10;;;;;;5129644;27;19924;-67
2021/09/15 11:47:45;;;;;;;;;;;25.60;63.20;;;;;;5110362;27;19967;-67
2021/09/15 11:50:24;;;;;;;;;;;25.60;63.20;;;;;;5132076;27;20381;-67
2021/09/15 11:52:54;;;;;;;;;;;25.60;63.20;;;;;;5127821;27;19928;-67
2021/09/15 11:55:25;;;;;;;;;;;25.60;63.30;;;;;;5114719;27;19923;-67
2021/09/15 11:58:00;;;;;;;;;;;25.50;63.10;;;;;;5126394;27;19997;-68
2021/09/15 12:00:39;;;;;;;;;;;25.50;63.50;;;;;;5114438;27;20278;-68
2021/09/15 12:03:12;;;;;;;;;;;25.40;63.30;;;;;;5128473;27;19923;-67
2021/09/15 12:05:45;;;;;;;;;;;25.40;62.80;;;;;;5108722;27;19924;-67
2021/09/15 12:08:27;;;;;;;;;;;25.30;62.70;;;;;;5129858;27;19931;-68
2021/09/15 12:11:04;;;;;;;;;;;25.30;63.20;;;;;;5116895;27;20004;-68
2021/09/15 12:13:54;;;;;;;;;;;25.30;63.30;;;;;;5130146;27;20026;-68
2021/09/15 12:16:29;;;;;;;;;;;25.30;62.90;;;;;;5124939;27;20401;-67
2021/09/15 12:18:57;;;;;;;;;;;25.20;62.60;;;;;;5121160;27;20284;-68
2021/09/15 12:21:28;;;;;;;;;;;25.20;62.50;;;;;;5126161;27;20365;-67
2021/09/15 12:24:02;;;;;;;;;;;25.20;63.00;;;;;;5133222;27;19923;-67
2021/09/15 12:26:29;;;;;;;;;;;25.10;62.30;;;;;;5109863;27;19937;-67
2021/09/15 12:29:01;;;;;;;;;;;25.10;62.10;;;;;;5116507;27;19923;-67
2021/09/15 12:31:46;;;;;;;;;;;25.10;62.10;;;;;;5109361;27;19923;-67
2021/09/15 12:34:16;;;;;;;;;;;25.10;62.10;;;;;;5118789;27;20439;-68
2021/09/15 12:36:46;;;;;;;;;;;25.00;62.10;;;;;;5127879;27;19927;-67
2021/09/15 12:39:20;;;;;;;;;;;25.00;62.30;;;;;;5131695;27;20380;-68
2021/09/15 12:41:58;;;;;;;;;;;25.00;62.50;;;;;;5107743;27;19931;-67
2021/09/15 12:44:35;;;;;;;;;;;24.90;62.40;;;;;;5130652;27;19927;-67
2021/09/15 12:47:03;;;;;;;;;;;24.90;62.10;;;;;;5112963;27;19931;-67
2021/09/15 12:49:40;;;;;;;;;;;24.90;62.10;;;;;;5111026;27;19932;-67
2021/09/15 12:52:16;;;;;;;;;;;24.80;62.20;;;;;;5114507;27;19924;-67
2021/09/15 12:54:55;;;;;;;;;;;24.80;62.40;;;;;;5113827;27;19934;-67
2021/09/15 12:57:30;;;;;;;;;;;24.90;62.90;;;;;;5117854;27;20268;-67
2021/09/15 13:00:20;;;;;;;;;;;24.80;62.40;;;;;;5126445;27;19931;-67
2021/09/15 13:02:54;;;;;;;;;;;24.80;62.30;;;;;;5130841;27;19934;-67
2021/09/15 13:05:25;;;;;;;;;;;24.80;62.40;;;;;;5126108;27;19988;-67
2021/09/15 13:07:59;;;;;;;;;;;24.80;62.30;;;;;;5120739;27;19930;-67
2021/09/15 13:10:32;;;;;;;;;;;24.80;62.40;;;;;;5125531;27;19931;-67
2021/09/15 13:13:02;;;;;;;;;;;24.70;61.90;;;;;;5123706;27;19927;-67
2021/09/15 13:15:34;;;;;;;;;;;24.70;61.90;;;;;;5128930;27;19928;-65
2021/09/15 13:18:02;;;;;;;;;;;24.70;61.80;;;;;;5114488;27;19924;-64
2021/09/15 13:20:33;;;;;;;;;;;24.70;61.90;;;;;;5126518;28;20397;-64
2021/09/15 13:23:01;;;;;;;;;;;24.60;61.90;;;;;;5140104;27;19927;-67
2021/09/15 13:25:33;;;;;;;;;;;24.60;62.10;;;;;;5128487;27;20006;-65
2021/09/15 13:28:01;;;;;;;;;;;24.60;61.80;;;;;;5109505;28;19949;-66
2021/09/15 13:30:29;;;;;;;;;;;24.60;61.90;;;;;;5127982;27;20075;-66
2021/09/15 13:33:04;;;;;;;;;;;24.60;61.80;;;;;;5104189;28;19931;-66
2021/09/15 13:35:33;;;;;;;;;;;24.60;62.00;;;;;;5111047;27;19923;-65
2021/09/15 13:38:08;;;;;;;;;;;24.60;62.10;;;;;;5102279;28;19931;-65
2021/09/15 13:40:38;;;;;;;;;;;24.60;61.70;;;;;;5127510;27;19931;-65
2021/09/15 13:43:08;;;;;;;;;;;24.60;61.30;;;;;;5116580;28;19928;-66
2021/09/15 13:45:39;;;;;;;;;;;24.60;61.40;;;;;;5106409;28;19928;-65
2021/09/15 13:48:09;;;;;;;;;;;24.70;61.40;;;;;;5119652;28;20265;-65
2021/09/15 13:50:39;;;;;;;;;;;24.70;61.40;;;;;;5108220;28;19989;-65
2021/09/15 13:53:09;;;;;;;;;;;24.60;60.90;;;;;;5122562;28;19931;-65
2021/09/15 13:55:39;;;;;;;;;;;24.60;60.50;;;;;;5120392;27;19968;-65
2021/09/15 13:58:20;;;;;;;;;;;24.60;60.60;;;;;;5129688;27;20010;-65
2021/09/15 14:00:53;;;;;;;;;;;24.50;60.60;;;;;;5134254;27;20440;-65
2021/09/15 14:03:27;;;;;;;;;;;24.50;60.40;;;;;;5124409;27;19946;-65
2021/09/15 14:05:55;;;;;;;;;;;24.50;60.60;;;;;;5117155;27;19949;-65
2021/09/15 14:08:24;;;;;;;;;;;24.50;60.70;;;;;;5129032;27;19992;-65
2021/09/15 14:10:54;;;;;;;;;;;24.50;60.90;;;;;;5135582;27;20337;-65
2021/09/15 14:13:27;;;;;;;;;;;24.60;61.00;;;;;;5126767;27;19939;-65
2021/09/15 14:15:57;;;;;;;;;;;24.60;60.70;;;;;;5091705;27;19927;-65
2021/09/15 14:18:26;;;;;;;;;;;24.50;60.50;;;;;;5122565;27;19930;-65
2021/09/15 14:20:56;;;;;;;;;;;24.50;60.60;;;;;;5125703;27;20018;-66
2021/09/15 14:23:28;;;;;;;;;;;24.50;60.50;;;;;;5128040;27;19932;-66
2021/09/15 14:25:56;;;;;;;;;;;24.50;60.50;;;;;;5135392;27;19927;-65
2021/09/15 14:28:24;;;;;;;;;;;24.50;60.50;;;;;;5129087;27;19930;-66
2021/09/15 14:30:54;;;;;;;;;;;24.50;60.70;;;;;;5126093;27;20464;-66
2021/09/15 14:33:23;;;;;;;;;;;24.50;60.60;;;;;;5126321;27;19976;-65
2021/09/15 14:35:54;;;;;;;;;;;24.50;60.70;;;;;;5128806;27;20413;-66
2021/09/15 14:38:24;;;;;;;;;;;24.50;60.50;;;;;;5131093;27;19923;-65
2021/09/15 14:40:55;;;;;;;;;;;24.50;60.40;;;;;;5130711;27;19927;-66
2021/09/15 14:43:29;;;;;;;;;;;24.40;60.50;;;;;;5111005;27;19963;-66
2021/09/15 14:46:00;;;;;;;;;;;24.50;60.70;;;;;;5132995;27;19938;-66
2021/09/15 14:48:30;;;;;;;;;;;24.50;60.70;;;;;;5130355;27;19927;-65
2021/09/15 14:50:58;;;;;;;;;;;24.50;60.70;;;;;;5115139;27;19934;-65
2021/09/15 14:53:29;;;;;;;;;;;24.40;60.80;;;;;;5130728;27;19931;-66